キガリ の空港の天気 - METARとTAF

キガリ国際空港 ( HRYR / KGL ) - ルワンダ キガリ
飛行場実況気象(Metar)
観測時間05/26 03:30 CAT (05/26 01:30 UTC)
風向・風速不定 1m/s
視程10km以上
天気現象
少しの雲 雲底高度 790m
全天の4割程度の雲 雲底高度 3050m
気温17℃
湿度94%
気圧1022hPa
METARHRYR 260130Z VRB02KT 9999 FEW026 SCT100 17/16 Q1022 NOSIG
過去の天気等 Google飛行場航空写真 Wunderground天気予報

過去48時間のMETAR

飛行場予報(TAF)
発表時間: 5/26 01:21 CAT (5/25 23:21 UTC)
予報対象時間: 26日2時 CAT ~ 27日8時 CAT
風向・風速北北東 2m/s
視程10km以上
少しの雲 雲底高度 790m
全天の4割程度の雲 雲底高度 3050m
26日11時 CAT ~ 26日13時 CAT に徐々に
風向・風速東南東 4m/s
全天の8割程度の雲 雲底高度 760m
26日17時 CAT ~ 26日21時 CAT に一時的に
風向・風速南 6m/s
天気現象弱い雷雨
少しの積乱雲 雲底高度 610m
全天の8割程度の雲 雲底高度 700m
26日22時 CAT ~ 27日1時 CAT に徐々に
風向・風速北北西 2m/s
天気現象運行に影響にある天気現象が終了
全天の4割程度の雲 雲底高度 790m
全天の4割程度の雲 雲底高度 3050m
27日4時 CAT ~ 27日7時 CAT に徐々に
風向・風速静穏
視程5000m
天気現象もや
少しの雲 雲底高度 240m
全天の4割程度の雲 雲底高度 610m
TAF COR HRYR 252321Z 2600/2706 02004KT 9999 FEW026 SCT100
BECMG 2609/2611 11008KT BKN025
TEMPO 2615/2619 18012KT -TSRA FEW020CB BKN023
BECMG 2620/2623 34003KT NSW SCT026 SCT100
BECMG 2702/2705 00000KT 5000 BR FEW008 SCT020